createdAt,value
2019-03-31T00:00:27.798Z,99.90
2019-03-31T00:03:08.743Z,99.90
2019-03-31T00:05:49.454Z,99.90
2019-03-31T00:08:29.955Z,99.90
2019-03-31T00:11:11.062Z,99.90
2019-03-31T00:13:51.754Z,99.90
2019-03-31T00:16:32.362Z,99.90
2019-03-31T00:19:13.053Z,99.90
2019-03-31T00:21:53.756Z,99.90
2019-03-31T00:24:34.420Z,99.90
2019-03-31T00:27:15.086Z,99.90
2019-03-31T00:29:55.935Z,99.90
2019-03-31T00:32:36.833Z,99.90
2019-03-31T00:35:17.342Z,99.90
2019-03-31T00:37:58.178Z,99.90
2019-03-31T00:40:39.143Z,99.90
2019-03-31T00:43:19.849Z,99.90
2019-03-31T00:46:00.836Z,99.90
2019-03-31T00:48:41.269Z,99.90
2019-03-31T00:51:21.930Z,99.90
2019-03-31T00:54:02.977Z,99.90
2019-03-31T00:56:43.739Z,99.90
2019-03-31T00:59:24.507Z,99.90
2019-03-31T01:02:06.864Z,99.90
2019-03-31T01:04:45.747Z,99.90
2019-03-31T01:10:36.123Z,99.90
2019-03-31T01:13:23.916Z,99.90
2019-03-31T01:16:04.984Z,99.90
2019-03-31T01:18:45.718Z,99.90
2019-03-31T01:21:26.379Z,99.90
2019-03-31T01:24:07.012Z,99.90
2019-03-31T01:26:47.997Z,99.90
2019-03-31T01:29:28.790Z,99.90
2019-03-31T01:32:10.686Z,99.90
2019-03-31T01:34:51.760Z,99.90
2019-03-31T01:37:32.619Z,99.90
2019-03-31T01:40:13.826Z,99.90
2019-03-31T01:42:54.255Z,99.90
2019-03-31T01:45:34.832Z,99.90
2019-03-31T01:48:15.327Z,99.90
2019-03-31T01:50:55.946Z,99.90
2019-03-31T01:53:36.544Z,99.90
2019-03-31T01:56:17.244Z,99.90
2019-03-31T01:58:57.732Z,99.90
2019-03-31T02:01:38.885Z,99.90
2019-03-31T02:04:19.296Z,99.90
2019-03-31T02:07:00.322Z,99.90
2019-03-31T02:09:40.953Z,99.90
2019-03-31T02:12:23.560Z,99.90
2019-03-31T02:15:05.661Z,99.90
2019-03-31T02:17:46.158Z,99.90
2019-03-31T02:20:26.696Z,99.90
2019-03-31T02:23:07.487Z,99.90
2019-03-31T02:25:48.651Z,99.90
2019-03-31T02:28:29.064Z,99.90
2019-03-31T02:31:10.049Z,99.90
2019-03-31T02:33:50.689Z,99.90
2019-03-31T02:36:31.065Z,99.90
2019-03-31T02:39:11.960Z,99.90
2019-03-31T02:41:52.340Z,99.90
2019-03-31T02:44:32.946Z,99.90
2019-03-31T02:47:13.678Z,99.90
2019-03-31T02:49:54.351Z,99.90
2019-03-31T02:52:34.962Z,99.90
2019-03-31T02:55:15.733Z,99.90
2019-03-31T02:57:56.214Z,99.90
2019-03-31T03:00:36.571Z,99.90
2019-03-31T03:03:17.552Z,99.90
2019-03-31T03:05:58.572Z,99.90
2019-03-31T03:08:39.101Z,99.90
2019-03-31T03:11:19.944Z,99.90
2019-03-31T03:14:02.941Z,99.90
2019-03-31T03:16:43.396Z,99.90
2019-03-31T03:19:24.384Z,99.90
2019-03-31T03:22:05.177Z,99.90
2019-03-31T03:24:46.136Z,99.90
2019-03-31T03:27:26.672Z,99.90
2019-03-31T03:30:06.932Z,99.90
2019-03-31T03:33:12.726Z,99.90
2019-03-31T03:35:30.113Z,99.90
2019-03-31T03:38:10.836Z,99.90
2019-03-31T03:40:51.779Z,99.90
2019-03-31T03:43:32.721Z,99.90
2019-03-31T03:46:13.402Z,99.90
2019-03-31T03:48:54.031Z,99.90
2019-03-31T03:51:34.467Z,99.90
2019-03-31T03:54:14.991Z,99.90
2019-03-31T03:56:55.885Z,99.90
2019-03-31T03:59:36.666Z,99.90
2019-03-31T04:02:17.254Z,99.90
2019-03-31T04:04:58.137Z,99.90
2019-03-31T04:07:38.741Z,99.90
2019-03-31T04:10:19.890Z,99.90
2019-03-31T04:13:00.407Z,99.90
2019-03-31T04:15:41.227Z,99.90
2019-03-31T04:18:21.913Z,99.90
2019-03-31T04:21:02.702Z,99.90
2019-03-31T04:23:43.380Z,99.90
2019-03-31T04:26:23.936Z,99.90
2019-03-31T04:29:04.501Z,99.90
2019-03-31T04:31:45.688Z,99.90
2019-03-31T04:34:26.397Z,99.90
2019-03-31T04:37:07.153Z,99.90
2019-03-31T04:39:49.300Z,99.90
2019-03-31T04:42:29.743Z,99.90
2019-03-31T04:45:10.271Z,99.90
2019-03-31T04:47:51.058Z,99.90
2019-03-31T04:50:32.003Z,99.90
2019-03-31T04:53:12.666Z,99.90
2019-03-31T04:55:53.447Z,99.90
2019-03-31T04:58:34.377Z,99.90
2019-03-31T05:01:14.823Z,99.90
2019-03-31T05:04:04.580Z,99.90
2019-03-31T05:06:38.361Z,99.90
2019-03-31T05:09:19.237Z,99.90
2019-03-31T05:11:59.981Z,99.90
2019-03-31T05:14:40.856Z,99.90
2019-03-31T05:17:21.477Z,99.90
2019-03-31T05:20:02.421Z,99.90
2019-03-31T05:22:43.623Z,99.90
2019-03-31T05:25:24.458Z,99.90
2019-03-31T05:28:06.879Z,99.90
2019-03-31T05:30:47.848Z,99.90
2019-03-31T05:33:28.647Z,99.90
2019-03-31T05:39:21.825Z,99.90
2019-03-31T05:42:02.450Z,99.90
2019-03-31T05:44:43.275Z,99.90
2019-03-31T05:47:24.323Z,99.90
2019-03-31T05:50:04.975Z,99.90
2019-03-31T05:52:45.400Z,99.90
2019-03-31T05:55:26.031Z,99.90
2019-03-31T05:58:07.068Z,99.90
2019-03-31T06:00:48.353Z,99.90
2019-03-31T06:03:28.752Z,99.90
2019-03-31T06:06:09.749Z,99.90
2019-03-31T06:08:50.462Z,99.90
2019-03-31T06:11:31.357Z,99.90
2019-03-31T06:14:12.113Z,99.90
2019-03-31T06:16:52.651Z,99.90
2019-03-31T06:19:33.535Z,99.90
2019-03-31T06:22:14.192Z,99.90
2019-03-31T06:24:55.023Z,99.90
2019-03-31T06:27:35.857Z,99.90
2019-03-31T06:30:16.810Z,99.90
2019-03-31T06:32:57.554Z,99.90
2019-03-31T06:35:38.530Z,99.90
2019-03-31T06:38:19.433Z,99.90
2019-03-31T06:41:00.239Z,99.90
2019-03-31T06:43:40.768Z,99.90
2019-03-31T06:46:21.698Z,99.90
2019-03-31T06:49:02.250Z,99.90
2019-03-31T06:51:42.832Z,99.90
2019-03-31T06:54:23.420Z,99.90
2019-03-31T06:57:04.406Z,99.90
2019-03-31T06:59:45.374Z,99.90
2019-03-31T07:02:26.260Z,99.90
2019-03-31T07:05:06.978Z,99.90
2019-03-31T07:07:47.911Z,99.90
2019-03-31T07:10:28.580Z,99.90
2019-03-31T07:13:09.315Z,99.90
2019-03-31T07:15:49.875Z,99.90
2019-03-31T07:18:30.684Z,99.90
2019-03-31T07:21:11.590Z,99.90
2019-03-31T07:23:52.373Z,99.90
2019-03-31T07:26:33.269Z,99.90
2019-03-31T07:29:14.022Z,99.90
2019-03-31T07:31:54.401Z,99.90
2019-03-31T07:34:34.899Z,99.90
2019-03-31T07:37:15.509Z,99.90
2019-03-31T07:39:56.018Z,99.90
2019-03-31T07:42:36.695Z,99.90
2019-03-31T07:45:17.735Z,99.90
2019-03-31T07:47:58.288Z,99.90
2019-03-31T07:50:39.417Z,99.90
2019-03-31T07:53:20.086Z,99.90
2019-03-31T07:56:01.115Z,99.90
2019-03-31T07:58:42.369Z,99.90
2019-03-31T08:01:23.137Z,99.90
2019-03-31T08:04:04.153Z,99.90
2019-03-31T08:06:44.903Z,99.90
2019-03-31T08:09:25.826Z,99.90
2019-03-31T08:12:06.527Z,99.90
2019-03-31T08:14:47.280Z,99.90
2019-03-31T08:17:28.066Z,99.90
2019-03-31T08:20:08.917Z,99.90
2019-03-31T08:22:49.802Z,99.90
2019-03-31T08:25:30.593Z,99.90
2019-03-31T08:28:11.185Z,99.90
2019-03-31T08:30:52.329Z,99.90
2019-03-31T08:33:33.351Z,99.90
2019-03-31T08:36:13.979Z,99.90
2019-03-31T08:38:54.524Z,99.90
2019-03-31T08:41:35.478Z,99.90
2019-03-31T08:44:15.839Z,99.90
2019-03-31T08:46:56.508Z,99.90
2019-03-31T08:49:37.362Z,99.90
2019-03-31T08:52:18.462Z,99.90
2019-03-31T08:54:59.328Z,99.90
2019-03-31T08:57:40.407Z,99.90
2019-03-31T09:03:14.622Z,99.90
2019-03-31T09:06:01.694Z,99.90
2019-03-31T09:08:38.983Z,99.90
2019-03-31T09:11:19.686Z,99.90
2019-03-31T09:14:00.279Z,99.90
2019-03-31T09:16:41.198Z,99.90
2019-03-31T09:19:21.888Z,99.90
2019-03-31T09:22:02.654Z,99.90
2019-03-31T09:24:44.357Z,99.90
2019-03-31T09:27:25.072Z,99.90
2019-03-31T09:30:05.616Z,99.90
2019-03-31T09:32:46.136Z,99.90
2019-03-31T09:35:27.108Z,99.90
2019-03-31T09:38:07.912Z,99.90
2019-03-31T09:40:48.470Z,99.90
2019-03-31T09:43:29.271Z,99.90
2019-03-31T09:46:10.264Z,99.90
2019-03-31T09:48:51.009Z,99.90
2019-03-31T09:51:31.688Z,99.90
2019-03-31T09:54:12.422Z,99.90
2019-03-31T09:56:53.166Z,99.90
2019-03-31T09:59:33.980Z,99.90
2019-03-31T10:02:15.084Z,99.90
2019-03-31T10:04:55.854Z,99.90
2019-03-31T10:07:36.843Z,99.90
2019-03-31T10:10:17.755Z,99.90
2019-03-31T10:12:58.530Z,99.90
2019-03-31T10:15:40.180Z,99.90
2019-03-31T10:18:21.188Z,99.90
2019-03-31T10:21:01.896Z,99.90
2019-03-31T10:23:42.513Z,99.90
2019-03-31T10:26:31.730Z,99.90
2019-03-31T10:29:05.495Z,99.90
2019-03-31T10:31:46.103Z,99.90
2019-03-31T10:34:26.882Z,99.90
2019-03-31T10:37:07.399Z,99.90
2019-03-31T10:39:48.296Z,99.90
2019-03-31T10:42:29.151Z,99.90
2019-03-31T10:45:09.577Z,99.90
2019-03-31T10:47:50.451Z,99.90
2019-03-31T10:50:31.576Z,99.90
2019-03-31T10:53:12.682Z,99.90
2019-03-31T10:55:53.328Z,99.90
2019-03-31T10:58:33.888Z,99.90
2019-03-31T11:01:14.469Z,99.90
2019-03-31T11:03:55.201Z,99.90
2019-03-31T11:06:35.857Z,99.90
2019-03-31T11:09:16.822Z,99.90
2019-03-31T11:11:57.471Z,99.90
2019-03-31T11:14:38.102Z,99.90
2019-03-31T11:17:18.651Z,99.90
2019-03-31T11:20:00.854Z,99.90
2019-03-31T11:23:01.142Z,99.90
2019-03-31T11:25:41.884Z,99.90
2019-03-31T11:28:24.592Z,99.90
2019-03-31T11:31:05.515Z,99.90
2019-03-31T11:33:46.010Z,99.90
2019-03-31T11:36:26.505Z,99.90
2019-03-31T11:39:07.044Z,99.90
2019-03-31T11:41:47.949Z,99.90
2019-03-31T11:44:28.809Z,99.90
2019-03-31T11:47:09.434Z,99.90
2019-03-31T11:49:50.428Z,99.90
2019-03-31T11:52:30.739Z,99.90
2019-03-31T11:55:11.376Z,99.90
2019-03-31T11:57:52.268Z,99.90
2019-03-31T12:00:34.450Z,99.90
2019-03-31T12:03:15.436Z,99.90
2019-03-31T12:05:56.111Z,99.90
2019-03-31T12:08:36.871Z,99.90
2019-03-31T12:11:18.410Z,99.90
2019-03-31T12:13:59.370Z,99.90
2019-03-31T12:16:39.899Z,99.90
2019-03-31T12:19:21.033Z,99.90
2019-03-31T12:22:01.656Z,99.90
2019-03-31T12:24:42.392Z,99.90
2019-03-31T12:27:23.118Z,99.90
2019-03-31T12:30:04.246Z,99.90
2019-03-31T12:32:44.848Z,99.90
2019-03-31T12:35:25.517Z,99.90
2019-03-31T12:38:06.484Z,99.90
2019-03-31T12:40:47.073Z,99.90
2019-03-31T12:43:27.933Z,99.90
2019-03-31T12:46:08.727Z,99.90
2019-03-31T12:48:49.531Z,99.90
2019-03-31T12:51:30.506Z,99.90
2019-03-31T12:54:11.451Z,99.90
2019-03-31T12:56:52.334Z,99.90
2019-03-31T12:59:32.828Z,99.90
2019-03-31T13:02:13.745Z,99.90
2019-03-31T13:04:54.676Z,99.90
2019-03-31T13:07:35.173Z,99.90
2019-03-31T13:10:15.911Z,99.90
2019-03-31T13:12:56.631Z,99.90
2019-03-31T13:15:37.556Z,99.90
2019-03-31T13:18:17.940Z,99.90
2019-03-31T13:20:58.592Z,99.90
2019-03-31T13:23:37.389Z,99.90
2019-03-31T13:26:18.268Z,99.90
2019-03-31T13:28:58.867Z,99.90
2019-03-31T13:31:39.675Z,99.90
2019-03-31T13:34:20.619Z,99.90
2019-03-31T13:37:02.834Z,99.90
2019-03-31T13:39:43.774Z,99.90
2019-03-31T13:42:25.250Z,99.90
2019-03-31T13:45:05.692Z,99.90
2019-03-31T13:47:46.348Z,99.90
2019-03-31T13:50:26.657Z,99.90
2019-03-31T13:53:07.404Z,99.90
2019-03-31T13:55:47.779Z,99.90
2019-03-31T13:58:28.916Z,99.90
2019-03-31T14:01:11.087Z,99.90
2019-03-31T14:03:51.641Z,99.90
2019-03-31T14:06:32.795Z,99.90
2019-03-31T14:09:13.406Z,99.90
2019-03-31T14:11:53.811Z,99.90
2019-03-31T14:14:34.717Z,99.90
2019-03-31T14:17:15.460Z,99.90
2019-03-31T14:19:55.989Z,99.90
2019-03-31T14:22:36.873Z,99.90
2019-03-31T14:25:17.429Z,99.90
2019-03-31T14:27:58.006Z,99.90
2019-03-31T14:30:38.748Z,99.80
2019-03-31T14:33:19.132Z,99.90
2019-03-31T14:35:59.953Z,99.80
2019-03-31T14:38:40.823Z,99.70
2019-03-31T14:41:21.524Z,99.10
2019-03-31T14:44:02.444Z,99.20
2019-03-31T14:46:43.361Z,99.30
2019-03-31T14:49:25.861Z,98.20
2019-03-31T14:52:04.449Z,98.30
2019-03-31T14:54:55.679Z,98.30
2019-03-31T14:57:34.809Z,98.40
2019-03-31T15:00:15.635Z,98.00
2019-03-31T15:02:56.050Z,97.60
2019-03-31T15:05:37.018Z,98.00
2019-03-31T15:08:18.108Z,97.60
2019-03-31T15:10:58.848Z,97.40
2019-03-31T15:13:39.770Z,97.90
2019-03-31T15:16:20.727Z,97.50
2019-03-31T15:19:01.196Z,97.00
2019-03-31T15:21:44.743Z,97.10
2019-03-31T15:24:24.676Z,97.10
2019-03-31T15:27:05.554Z,97.10
2019-03-31T15:29:46.189Z,97.10
2019-03-31T15:32:28.131Z,96.90
2019-03-31T15:35:08.572Z,96.90
2019-03-31T15:37:49.284Z,96.60
2019-03-31T15:40:30.221Z,96.50
2019-03-31T15:43:10.769Z,96.70
2019-03-31T15:45:51.743Z,96.80
2019-03-31T15:48:32.742Z,97.70
2019-03-31T15:51:13.607Z,97.50
2019-03-31T15:53:52.462Z,97.70
2019-03-31T15:56:40.319Z,97.10
2019-03-31T15:59:20.907Z,97.70
2019-03-31T16:02:01.399Z,97.80
2019-03-31T16:04:42.408Z,98.00
2019-03-31T16:07:24.948Z,97.70
2019-03-31T16:10:05.812Z,98.10
2019-03-31T16:12:46.695Z,98.50
2019-03-31T16:15:27.391Z,98.00
2019-03-31T16:18:06.129Z,97.90
2019-03-31T16:20:46.457Z,97.70
2019-03-31T16:23:27.359Z,97.30
2019-03-31T16:26:08.105Z,97.60
2019-03-31T16:28:48.922Z,97.60
2019-03-31T16:31:29.616Z,97.60
2019-03-31T16:34:10.253Z,97.30
2019-03-31T16:36:52.005Z,97.50
2019-03-31T16:39:37.934Z,97.40
2019-03-31T16:42:15.472Z,97.50
2019-03-31T16:44:58.329Z,97.70
2019-03-31T16:47:39.240Z,98.00
2019-03-31T16:50:20.025Z,97.50
2019-03-31T16:53:00.709Z,97.40
2019-03-31T16:55:41.572Z,97.50
2019-03-31T16:58:22.228Z,97.40
2019-03-31T17:01:02.985Z,97.60
2019-03-31T17:03:43.845Z,97.80
2019-03-31T17:06:24.731Z,97.90
2019-03-31T17:09:05.736Z,98.10
2019-03-31T17:11:47.225Z,98.20
2019-03-31T17:14:27.903Z,98.20
2019-03-31T17:17:08.777Z,98.50
2019-03-31T17:19:49.243Z,98.50
2019-03-31T17:22:29.956Z,98.20
2019-03-31T17:25:10.315Z,98.30
2019-03-31T17:27:51.214Z,98.30
2019-03-31T17:30:31.756Z,98.50
2019-03-31T17:33:12.441Z,98.30
2019-03-31T17:35:53.423Z,98.30
2019-03-31T17:38:34.399Z,98.40
2019-03-31T17:41:15.283Z,98.60
2019-03-31T17:43:55.976Z,98.40
2019-03-31T17:46:37.020Z,98.30
2019-03-31T17:49:17.646Z,98.60
2019-03-31T17:52:01.118Z,98.70
2019-03-31T17:54:41.271Z,99.20
2019-03-31T17:57:22.342Z,98.90
2019-03-31T18:00:03.688Z,99.10
2019-03-31T18:02:44.684Z,99.20
2019-03-31T18:05:25.121Z,99.40
2019-03-31T18:08:05.802Z,99.40
2019-03-31T18:10:46.512Z,99.40
2019-03-31T18:13:27.410Z,99.60
2019-03-31T18:16:07.929Z,99.80
2019-03-31T18:18:49.071Z,99.90
2019-03-31T18:21:29.841Z,99.90
2019-03-31T18:24:10.494Z,99.90
2019-03-31T18:26:50.930Z,99.90
2019-03-31T18:29:31.185Z,99.90
2019-03-31T18:32:12.075Z,99.90
2019-03-31T18:34:52.792Z,99.90
2019-03-31T18:37:33.561Z,99.90
2019-03-31T18:40:14.445Z,99.90
2019-03-31T18:42:55.029Z,99.90
2019-03-31T18:45:35.688Z,99.90
2019-03-31T18:48:16.362Z,99.90
2019-03-31T18:50:56.803Z,99.90
2019-03-31T18:53:42.076Z,99.90
2019-03-31T18:56:42.452Z,99.90
2019-03-31T18:59:25.090Z,99.90
2019-03-31T19:02:25.479Z,99.90
2019-03-31T19:05:07.460Z,99.90
2019-03-31T19:08:07.861Z,99.90
2019-03-31T19:10:50.667Z,99.90
2019-03-31T19:13:36.493Z,99.90
2019-03-31T19:16:36.705Z,99.90
2019-03-31T19:19:21.625Z,99.90
2019-03-31T19:22:06.495Z,99.90
2019-03-31T19:25:06.101Z,99.90
2019-03-31T19:27:51.901Z,99.90
2019-03-31T19:30:52.136Z,99.90
2019-03-31T19:33:34.964Z,99.90
2019-03-31T19:36:34.468Z,99.90
2019-03-31T19:39:34.646Z,99.90
2019-03-31T19:42:34.100Z,99.90
2019-03-31T19:45:18.883Z,99.90
2019-03-31T19:48:18.420Z,99.90
2019-03-31T19:51:18.225Z,99.90
2019-03-31T19:54:18.310Z,99.90
2019-03-31T19:57:18.555Z,99.90
2019-03-31T20:00:18.731Z,99.90
2019-03-31T20:03:01.722Z,99.90
2019-03-31T20:06:02.072Z,99.90
2019-03-31T20:11:38.217Z,99.90
2019-03-31T20:14:23.744Z,99.90
2019-03-31T20:17:23.406Z,99.90
2019-03-31T20:20:23.585Z,99.90
2019-03-31T20:23:05.576Z,99.90
2019-03-31T20:25:51.049Z,99.90
2019-03-31T20:31:44.429Z,99.90
2019-03-31T20:34:26.496Z,99.90
2019-03-31T20:40:20.865Z,99.90
2019-03-31T20:43:06.004Z,99.90
2019-03-31T20:45:46.272Z,99.90
2019-03-31T20:48:26.940Z,99.90
2019-03-31T20:51:07.367Z,99.90
2019-03-31T20:53:47.730Z,99.90
2019-03-31T20:56:28.422Z,99.90
2019-03-31T20:59:09.026Z,99.90
2019-03-31T21:01:49.627Z,99.90
2019-03-31T21:04:30.670Z,99.90
2019-03-31T21:07:11.591Z,99.90
2019-03-31T21:09:52.183Z,99.90
2019-03-31T21:12:32.942Z,99.90
2019-03-31T21:15:13.358Z,99.90
2019-03-31T21:17:53.681Z,99.90
2019-03-31T21:20:34.881Z,99.90
2019-03-31T21:23:15.565Z,99.90
2019-03-31T21:25:56.535Z,99.90
2019-03-31T21:28:37.302Z,99.90
2019-03-31T21:31:17.822Z,99.90
2019-03-31T21:33:58.572Z,99.90
2019-03-31T21:36:39.175Z,99.90
2019-03-31T21:39:19.925Z,99.90
2019-03-31T21:42:01.819Z,99.90
2019-03-31T21:44:42.398Z,99.90
2019-03-31T21:47:23.236Z,99.90
2019-03-31T21:50:04.192Z,99.90
2019-03-31T21:52:45.057Z,99.90
2019-03-31T21:55:25.599Z,99.90
2019-03-31T21:58:05.876Z,99.90
2019-03-31T22:00:48.351Z,99.90
2019-03-31T22:03:29.185Z,99.90
2019-03-31T22:06:10.273Z,99.90
2019-03-31T22:08:51.127Z,99.90
2019-03-31T22:11:31.958Z,99.90
2019-03-31T22:14:12.724Z,99.90
2019-03-31T22:16:53.258Z,99.90
2019-03-31T22:19:34.107Z,99.90
2019-03-31T22:22:14.644Z,99.90
2019-03-31T22:24:55.377Z,99.90
2019-03-31T22:27:36.098Z,99.90
2019-03-31T22:30:16.671Z,99.90
2019-03-31T22:32:57.562Z,99.90
2019-03-31T22:35:38.404Z,99.90
2019-03-31T22:38:19.285Z,99.90
2019-03-31T22:40:59.991Z,99.90
2019-03-31T22:43:40.890Z,99.90
2019-03-31T22:46:22.892Z,99.90
2019-03-31T22:49:03.692Z,99.90
2019-03-31T22:51:44.323Z,99.90
2019-03-31T22:54:25.183Z,99.90
2019-03-31T22:57:05.746Z,99.90
2019-03-31T22:59:46.376Z,99.90
2019-03-31T23:02:26.733Z,99.90
2019-03-31T23:05:07.370Z,99.90
2019-03-31T23:07:48.340Z,99.90
2019-03-31T23:10:29.220Z,99.90
2019-03-31T23:13:11.285Z,99.90
2019-03-31T23:15:52.445Z,99.90
2019-03-31T23:18:32.941Z,99.90
2019-03-31T23:21:13.509Z,99.90
2019-03-31T23:23:54.252Z,99.90
2019-03-31T23:26:35.156Z,99.90
2019-03-31T23:29:15.844Z,99.90
2019-03-31T23:31:56.920Z,99.90
2019-03-31T23:34:37.577Z,99.90
2019-03-31T23:37:18.215Z,99.90
2019-03-31T23:39:58.798Z,99.90
2019-03-31T23:42:39.435Z,99.90
2019-03-31T23:45:19.934Z,99.90
2019-03-31T23:48:00.720Z,99.90
2019-03-31T23:50:41.703Z,99.90
2019-03-31T23:53:22.483Z,99.90
2019-03-31T23:56:03.394Z,99.90
2019-03-31T23:58:44.091Z,99.90
